sensor_id;sensor_type;location;lat;lon;timestamp;P1;durP1;ratioP1;P2;durP2;ratioP2
80778;SDS011;70170;47.856;10.956;2024-02-16T00:00:08;4.28;;;3.47;;
80778;SDS011;70170;47.856;10.956;2024-02-16T00:02:36;3.05;;;2.75;;
80778;SDS011;70170;47.856;10.956;2024-02-16T00:05:02;5.63;;;3.25;;
80778;SDS011;70170;47.856;10.956;2024-02-16T00:07:28;4.13;;;3.20;;
80778;SDS011;70170;47.856;10.956;2024-02-16T00:09:54;4.05;;;3.15;;
80778;SDS011;70170;47.856;10.956;2024-02-16T00:12:19;6.10;;;3.00;;
80778;SDS011;70170;47.856;10.956;2024-02-16T00:14:44;4.90;;;2.63;;
80778;SDS011;70170;47.856;10.956;2024-02-16T00:17:11;5.78;;;3.05;;
80778;SDS011;70170;47.856;10.956;2024-02-16T00:19:36;3.15;;;2.63;;
80778;SDS011;70170;47.856;10.956;2024-02-16T00:22:02;4.35;;;3.15;;
80778;SDS011;70170;47.856;10.956;2024-02-16T00:24:27;4.45;;;2.85;;
80778;SDS011;70170;47.856;10.956;2024-02-16T00:26:52;4.18;;;2.78;;
80778;SDS011;70170;47.856;10.956;2024-02-16T00:29:18;3.80;;;2.50;;
80778;SDS011;70170;47.856;10.956;2024-02-16T00:31:44;9.10;;;2.92;;
80778;SDS011;70170;47.856;10.956;2024-02-16T00:34:09;4.07;;;2.80;;
80778;SDS011;70170;47.856;10.956;2024-02-16T00:36:35;3.95;;;2.65;;
80778;SDS011;70170;47.856;10.956;2024-02-16T00:39:01;3.40;;;2.38;;
80778;SDS011;70170;47.856;10.956;2024-02-16T00:41:27;6.13;;;2.70;;
80778;SDS011;70170;47.856;10.956;2024-02-16T00:43:52;5.63;;;2.83;;
80778;SDS011;70170;47.856;10.956;2024-02-16T00:46:18;3.17;;;2.45;;
80778;SDS011;70170;47.856;10.956;2024-02-16T00:48:43;8.35;;;2.53;;
80778;SDS011;70170;47.856;10.956;2024-02-16T00:51:09;7.22;;;2.13;;
80778;SDS011;70170;47.856;10.956;2024-02-16T00:53:34;3.03;;;2.28;;
80778;SDS011;70170;47.856;10.956;2024-02-16T00:55:59;4.13;;;2.15;;
80778;SDS011;70170;47.856;10.956;2024-02-16T00:58:24;4.60;;;2.60;;
80778;SDS011;70170;47.856;10.956;2024-02-16T01:00:50;3.63;;;2.42;;
80778;SDS011;70170;47.856;10.956;2024-02-16T01:03:15;6.47;;;2.95;;
80778;SDS011;70170;47.856;10.956;2024-02-16T01:05:40;2.33;;;2.10;;
80778;SDS011;70170;47.856;10.956;2024-02-16T01:08:06;3.97;;;2.67;;
80778;SDS011;70170;47.856;10.956;2024-02-16T01:10:31;2.47;;;2.22;;
80778;SDS011;70170;47.856;10.956;2024-02-16T01:12:57;2.95;;;2.20;;
80778;SDS011;70170;47.856;10.956;2024-02-16T01:15:22;3.53;;;2.70;;
80778;SDS011;70170;47.856;10.956;2024-02-16T01:17:48;4.13;;;2.95;;
80778;SDS011;70170;47.856;10.956;2024-02-16T01:20:13;4.53;;;2.92;;
80778;SDS011;70170;47.856;10.956;2024-02-16T01:22:39;5.32;;;2.63;;
80778;SDS011;70170;47.856;10.956;2024-02-16T01:25:05;3.75;;;2.75;;
80778;SDS011;70170;47.856;10.956;2024-02-16T01:27:30;7.00;;;2.42;;
80778;SDS011;70170;47.856;10.956;2024-02-16T01:29:57;9.98;;;2.10;;
80778;SDS011;70170;47.856;10.956;2024-02-16T01:32:22;3.75;;;2.33;;
80778;SDS011;70170;47.856;10.956;2024-02-16T01:34:47;2.70;;;1.88;;
80778;SDS011;70170;47.856;10.956;2024-02-16T01:37:14;2.53;;;1.90;;
80778;SDS011;70170;47.856;10.956;2024-02-16T01:39:40;5.85;;;2.65;;
80778;SDS011;70170;47.856;10.956;2024-02-16T01:42:05;5.25;;;2.10;;
80778;SDS011;70170;47.856;10.956;2024-02-16T01:44:31;3.28;;;2.15;;
80778;SDS011;70170;47.856;10.956;2024-02-16T01:46:56;3.90;;;2.10;;
80778;SDS011;70170;47.856;10.956;2024-02-16T01:49:21;4.38;;;2.03;;
80778;SDS011;70170;47.856;10.956;2024-02-16T01:51:47;6.07;;;2.20;;
80778;SDS011;70170;47.856;10.956;2024-02-16T01:54:12;6.07;;;1.98;;
80778;SDS011;70170;47.856;10.956;2024-02-16T01:56:38;1.80;;;1.70;;
80778;SDS011;70170;47.856;10.956;2024-02-16T01:59:03;3.55;;;1.85;;
80778;SDS011;70170;47.856;10.956;2024-02-16T02:01:29;2.45;;;1.73;;
80778;SDS011;70170;47.856;10.956;2024-02-16T02:03:55;2.50;;;2.00;;
80778;SDS011;70170;47.856;10.956;2024-02-16T02:06:20;3.00;;;2.00;;
80778;SDS011;70170;47.856;10.956;2024-02-16T02:08:46;9.57;;;2.60;;
80778;SDS011;70170;47.856;10.956;2024-02-16T02:11:12;2.65;;;2.40;;
80778;SDS011;70170;47.856;10.956;2024-02-16T02:13:37;2.45;;;2.25;;
80778;SDS011;70170;47.856;10.956;2024-02-16T02:16:02;4.53;;;2.45;;
80778;SDS011;70170;47.856;10.956;2024-02-16T02:18:30;2.75;;;2.20;;
80778;SDS011;70170;47.856;10.956;2024-02-16T02:20:56;5.82;;;3.08;;
80778;SDS011;70170;47.856;10.956;2024-02-16T02:23:21;7.50;;;3.45;;
80778;SDS011;70170;47.856;10.956;2024-02-16T02:25:47;6.38;;;3.70;;
80778;SDS011;70170;47.856;10.956;2024-02-16T02:28:14;5.57;;;3.65;;
80778;SDS011;70170;47.856;10.956;2024-02-16T02:30:40;5.13;;;3.28;;
80778;SDS011;70170;47.856;10.956;2024-02-16T02:33:06;6.63;;;3.83;;
80778;SDS011;70170;47.856;10.956;2024-02-16T02:35:31;5.72;;;3.55;;
80778;SDS011;70170;47.856;10.956;2024-02-16T02:37:57;9.73;;;3.70;;
80778;SDS011;70170;47.856;10.956;2024-02-16T02:40:22;6.13;;;3.63;;
80778;SDS011;70170;47.856;10.956;2024-02-16T02:42:47;4.05;;;2.88;;
80778;SDS011;70170;47.856;10.956;2024-02-16T02:45:13;3.63;;;2.90;;
80778;SDS011;70170;47.856;10.956;2024-02-16T02:47:38;3.65;;;2.60;;
80778;SDS011;70170;47.856;10.956;2024-02-16T02:50:04;4.63;;;3.35;;
80778;SDS011;70170;47.856;10.956;2024-02-16T02:52:29;6.60;;;2.92;;
80778;SDS011;70170;47.856;10.956;2024-02-16T02:54:55;4.45;;;3.10;;
80778;SDS011;70170;47.856;10.956;2024-02-16T02:57:20;5.30;;;2.95;;
80778;SDS011;70170;47.856;10.956;2024-02-16T02:59:45;5.45;;;3.20;;
80778;SDS011;70170;47.856;10.956;2024-02-16T03:02:11;6.05;;;2.83;;
80778;SDS011;70170;47.856;10.956;2024-02-16T03:04:36;5.90;;;2.38;;
80778;SDS011;70170;47.856;10.956;2024-02-16T03:07:01;2.58;;;2.08;;
80778;SDS011;70170;47.856;10.956;2024-02-16T03:09:27;3.30;;;2.22;;
80778;SDS011;70170;47.856;10.956;2024-02-16T03:11:52;3.03;;;2.30;;
80778;SDS011;70170;47.856;10.956;2024-02-16T03:14:18;4.20;;;3.05;;
80778;SDS011;70170;47.856;10.956;2024-02-16T03:16:43;5.85;;;3.05;;
80778;SDS011;70170;47.856;10.956;2024-02-16T03:19:08;3.60;;;3.00;;
80778;SDS011;70170;47.856;10.956;2024-02-16T03:21:34;4.45;;;2.67;;
80778;SDS011;70170;47.856;10.956;2024-02-16T03:24:00;5.50;;;3.33;;
80778;SDS011;70170;47.856;10.956;2024-02-16T03:26:26;6.05;;;3.55;;
80778;SDS011;70170;47.856;10.956;2024-02-16T03:28:51;6.90;;;3.90;;
80778;SDS011;70170;47.856;10.956;2024-02-16T03:31:20;5.95;;;3.30;;
80778;SDS011;70170;47.856;10.956;2024-02-16T03:33:49;5.15;;;3.42;;
80778;SDS011;70170;47.856;10.956;2024-02-16T03:36:19;4.85;;;3.03;;
80778;SDS011;70170;47.856;10.956;2024-02-16T03:38:45;5.47;;;3.30;;
80778;SDS011;70170;47.856;10.956;2024-02-16T03:41:14;7.03;;;3.33;;
80778;SDS011;70170;47.856;10.956;2024-02-16T03:43:40;6.45;;;3.13;;
80778;SDS011;70170;47.856;10.956;2024-02-16T03:46:06;5.80;;;3.50;;
80778;SDS011;70170;47.856;10.956;2024-02-16T03:48:31;3.95;;;2.72;;
80778;SDS011;70170;47.856;10.956;2024-02-16T03:50:56;6.53;;;3.20;;
80778;SDS011;70170;47.856;10.956;2024-02-16T03:53:22;4.07;;;2.88;;
80778;SDS011;70170;47.856;10.956;2024-02-16T03:55:48;4.88;;;2.97;;
80778;SDS011;70170;47.856;10.956;2024-02-16T03:58:14;5.32;;;3.45;;
80778;SDS011;70170;47.856;10.956;2024-02-16T04:00:39;5.55;;;2.60;;
80778;SDS011;70170;47.856;10.956;2024-02-16T04:03:04;2.35;;;1.80;;
80778;SDS011;70170;47.856;10.956;2024-02-16T04:05:29;2.17;;;1.98;;
80778;SDS011;70170;47.856;10.956;2024-02-16T04:07:57;2.95;;;2.00;;
80778;SDS011;70170;47.856;10.956;2024-02-16T04:10:26;2.95;;;2.17;;
80778;SDS011;70170;47.856;10.956;2024-02-16T04:12:53;5.20;;;3.20;;
80778;SDS011;70170;47.856;10.956;2024-02-16T04:15:19;4.20;;;2.60;;
80778;SDS011;70170;47.856;10.956;2024-02-16T04:17:44;5.07;;;3.15;;
80778;SDS011;70170;47.856;10.956;2024-02-16T04:20:09;5.93;;;3.38;;
80778;SDS011;70170;47.856;10.956;2024-02-16T04:22:36;4.32;;;3.38;;
80778;SDS011;70170;47.856;10.956;2024-02-16T04:25:03;8.93;;;3.90;;
80778;SDS011;70170;47.856;10.956;2024-02-16T04:27:29;5.03;;;3.65;;
80778;SDS011;70170;47.856;10.956;2024-02-16T04:29:54;5.22;;;3.40;;
80778;SDS011;70170;47.856;10.956;2024-02-16T04:32:20;3.55;;;3.03;;
80778;SDS011;70170;47.856;10.956;2024-02-16T04:34:45;4.88;;;3.42;;
80778;SDS011;70170;47.856;10.956;2024-02-16T04:37:11;6.13;;;3.58;;
80778;SDS011;70170;47.856;10.956;2024-02-16T04:39:37;3.13;;;2.53;;
80778;SDS011;70170;47.856;10.956;2024-02-16T04:42:03;3.78;;;2.00;;
80778;SDS011;70170;47.856;10.956;2024-02-16T04:44:29;2.53;;;1.67;;
80778;SDS011;70170;47.856;10.956;2024-02-16T04:46:54;4.07;;;1.90;;
80778;SDS011;70170;47.856;10.956;2024-02-16T04:49:20;4.43;;;1.83;;
80778;SDS011;70170;47.856;10.956;2024-02-16T04:51:46;2.63;;;1.85;;
80778;SDS011;70170;47.856;10.956;2024-02-16T04:54:12;6.13;;;1.70;;
80778;SDS011;70170;47.856;10.956;2024-02-16T04:56:38;2.10;;;1.90;;
80778;SDS011;70170;47.856;10.956;2024-02-16T04:59:04;1.60;;;1.48;;
80778;SDS011;70170;47.856;10.956;2024-02-16T05:01:30;2.47;;;2.00;;
80778;SDS011;70170;47.856;10.956;2024-02-16T05:03:57;5.63;;;3.13;;
80778;SDS011;70170;47.856;10.956;2024-02-16T05:06:23;3.88;;;2.70;;
80778;SDS011;70170;47.856;10.956;2024-02-16T05:08:48;5.07;;;2.88;;
80778;SDS011;70170;47.856;10.956;2024-02-16T05:11:14;3.92;;;3.00;;
80778;SDS011;70170;47.856;10.956;2024-02-16T05:13:39;3.83;;;2.92;;
80778;SDS011;70170;47.856;10.956;2024-02-16T05:16:08;9.02;;;3.70;;
80778;SDS011;70170;47.856;10.956;2024-02-16T05:18:34;7.13;;;3.70;;
80778;SDS011;70170;47.856;10.956;2024-02-16T05:20:59;6.90;;;4.35;;
80778;SDS011;70170;47.856;10.956;2024-02-16T05:23:25;8.65;;;4.18;;
80778;SDS011;70170;47.856;10.956;2024-02-16T05:25:50;9.50;;;4.38;;
80778;SDS011;70170;47.856;10.956;2024-02-16T05:28:16;8.57;;;4.57;;
80778;SDS011;70170;47.856;10.956;2024-02-16T05:30:42;6.20;;;3.20;;
80778;SDS011;70170;47.856;10.956;2024-02-16T05:33:07;5.50;;;3.58;;
80778;SDS011;70170;47.856;10.956;2024-02-16T05:35:32;3.78;;;2.85;;
80778;SDS011;70170;47.856;10.956;2024-02-16T05:37:59;3.40;;;2.70;;
80778;SDS011;70170;47.856;10.956;2024-02-16T05:40:31;6.95;;;2.50;;
80778;SDS011;70170;47.856;10.956;2024-02-16T05:43:09;4.78;;;2.25;;
80778;SDS011;70170;47.856;10.956;2024-02-16T05:45:34;6.68;;;2.35;;
80778;SDS011;70170;47.856;10.956;2024-02-16T05:48:00;2.67;;;1.80;;
80778;SDS011;70170;47.856;10.956;2024-02-16T05:50:25;3.00;;;1.83;;
80778;SDS011;70170;47.856;10.956;2024-02-16T05:52:51;6.03;;;2.17;;
80778;SDS011;70170;47.856;10.956;2024-02-16T05:55:17;5.10;;;2.00;;
80778;SDS011;70170;47.856;10.956;2024-02-16T05:57:46;3.95;;;2.55;;
80778;SDS011;70170;47.856;10.956;2024-02-16T06:00:11;2.83;;;2.10;;
80778;SDS011;70170;47.856;10.956;2024-02-16T06:02:38;1.95;;;1.58;;
80778;SDS011;70170;47.856;10.956;2024-02-16T06:05:03;6.53;;;2.17;;
80778;SDS011;70170;47.856;10.956;2024-02-16T06:07:30;2.95;;;1.80;;
80778;SDS011;70170;47.856;10.956;2024-02-16T06:09:55;4.07;;;2.20;;
80778;SDS011;70170;47.856;10.956;2024-02-16T06:12:21;5.45;;;2.90;;
80778;SDS011;70170;47.856;10.956;2024-02-16T06:14:47;5.43;;;3.10;;
80778;SDS011;70170;47.856;10.956;2024-02-16T06:17:13;3.78;;;2.67;;
80778;SDS011;70170;47.856;10.956;2024-02-16T06:19:39;4.47;;;2.88;;
80778;SDS011;70170;47.856;10.956;2024-02-16T06:22:05;3.17;;;2.47;;
80778;SDS011;70170;47.856;10.956;2024-02-16T06:24:31;5.68;;;2.50;;
80778;SDS011;70170;47.856;10.956;2024-02-16T06:26:56;6.20;;;2.22;;
80778;SDS011;70170;47.856;10.956;2024-02-16T06:29:22;6.25;;;2.22;;
80778;SDS011;70170;47.856;10.956;2024-02-16T06:31:47;2.58;;;2.17;;
80778;SDS011;70170;47.856;10.956;2024-02-16T06:34:13;6.63;;;2.60;;
80778;SDS011;70170;47.856;10.956;2024-02-16T06:36:39;2.72;;;2.00;;
80778;SDS011;70170;47.856;10.956;2024-02-16T06:39:05;1.65;;;1.55;;
80778;SDS011;70170;47.856;10.956;2024-02-16T06:41:30;3.17;;;1.40;;
80778;SDS011;70170;47.856;10.956;2024-02-16T06:43:56;3.60;;;1.13;;
80778;SDS011;70170;47.856;10.956;2024-02-16T06:46:21;4.20;;;1.25;;
80778;SDS011;70170;47.856;10.956;2024-02-16T06:48:47;1.55;;;1.30;;
80778;SDS011;70170;47.856;10.956;2024-02-16T06:51:12;1.25;;;1.15;;
80778;SDS011;70170;47.856;10.956;2024-02-16T06:53:38;5.68;;;1.58;;
80778;SDS011;70170;47.856;10.956;2024-02-16T06:56:03;3.30;;;1.58;;
80778;SDS011;70170;47.856;10.956;2024-02-16T06:58:29;2.88;;;1.50;;
80778;SDS011;70170;47.856;10.956;2024-02-16T07:00:54;2.67;;;1.48;;
80778;SDS011;70170;47.856;10.956;2024-02-16T07:03:20;1.75;;;1.45;;
80778;SDS011;70170;47.856;10.956;2024-02-16T07:05:45;2.70;;;1.25;;
80778;SDS011;70170;47.856;10.956;2024-02-16T07:08:10;1.67;;;1.23;;
80778;SDS011;70170;47.856;10.956;2024-02-16T07:10:36;1.80;;;1.45;;
80778;SDS011;70170;47.856;10.956;2024-02-16T07:13:01;2.63;;;1.60;;
80778;SDS011;70170;47.856;10.956;2024-02-16T07:15:27;1.30;;;1.20;;
80778;SDS011;70170;47.856;10.956;2024-02-16T07:17:55;1.27;;;1.17;;
80778;SDS011;70170;47.856;10.956;2024-02-16T07:20:22;1.55;;;1.13;;
80778;SDS011;70170;47.856;10.956;2024-02-16T07:22:47;2.00;;;1.25;;
80778;SDS011;70170;47.856;10.956;2024-02-16T07:25:16;3.67;;;1.45;;
80778;SDS011;70170;47.856;10.956;2024-02-16T07:27:42;2.53;;;1.25;;
80778;SDS011;70170;47.856;10.956;2024-02-16T07:30:08;2.97;;;1.30;;
80778;SDS011;70170;47.856;10.956;2024-02-16T07:32:35;2.70;;;1.63;;
80778;SDS011;70170;47.856;10.956;2024-02-16T07:35:01;2.03;;;1.58;;
80778;SDS011;70170;47.856;10.956;2024-02-16T07:37:28;1.85;;;1.42;;
80778;SDS011;70170;47.856;10.956;2024-02-16T07:39:53;4.38;;;1.50;;
80778;SDS011;70170;47.856;10.956;2024-02-16T07:42:19;2.63;;;1.50;;
80778;SDS011;70170;47.856;10.956;2024-02-16T07:44:45;3.83;;;1.40;;
80778;SDS011;70170;47.856;10.956;2024-02-16T07:47:11;4.47;;;1.70;;
80778;SDS011;70170;47.856;10.956;2024-02-16T07:49:37;1.73;;;1.60;;
80778;SDS011;70170;47.856;10.956;2024-02-16T07:52:04;1.60;;;1.50;;
80778;SDS011;70170;47.856;10.956;2024-02-16T07:54:30;1.85;;;1.60;;
80778;SDS011;70170;47.856;10.956;2024-02-16T07:56:55;1.63;;;1.27;;
80778;SDS011;70170;47.856;10.956;2024-02-16T07:59:21;1.40;;;1.30;;
80778;SDS011;70170;47.856;10.956;2024-02-16T08:01:47;1.98;;;1.50;;
80778;SDS011;70170;47.856;10.956;2024-02-16T08:04:12;2.67;;;1.40;;
80778;SDS011;70170;47.856;10.956;2024-02-16T08:06:37;3.20;;;1.60;;
80778;SDS011;70170;47.856;10.956;2024-02-16T08:09:03;1.63;;;1.40;;
80778;SDS011;70170;47.856;10.956;2024-02-16T08:11:29;5.97;;;1.88;;
80778;SDS011;70170;47.856;10.956;2024-02-16T08:13:54;1.52;;;1.40;;
80778;SDS011;70170;47.856;10.956;2024-02-16T08:16:20;1.50;;;1.40;;
80778;SDS011;70170;47.856;10.956;2024-02-16T08:18:46;2.33;;;1.00;;
80778;SDS011;70170;47.856;10.956;2024-02-16T08:21:12;2.50;;;1.67;;
80778;SDS011;70170;47.856;10.956;2024-02-16T08:23:37;5.15;;;1.42;;
80778;SDS011;70170;47.856;10.956;2024-02-16T08:26:03;2.13;;;1.40;;
80778;SDS011;70170;47.856;10.956;2024-02-16T08:28:29;2.50;;;1.38;;
80778;SDS011;70170;47.856;10.956;2024-02-16T08:30:54;1.35;;;1.20;;
80778;SDS011;70170;47.856;10.956;2024-02-16T08:33:20;1.10;;;1.00;;
80778;SDS011;70170;47.856;10.956;2024-02-16T08:35:45;1.48;;;1.05;;
80778;SDS011;70170;47.856;10.956;2024-02-16T08:38:10;2.13;;;1.50;;
80778;SDS011;70170;47.856;10.956;2024-02-16T08:40:36;6.82;;;1.60;;
80778;SDS011;70170;47.856;10.956;2024-02-16T08:43:02;1.45;;;1.20;;
80778;SDS011;70170;47.856;10.956;2024-02-16T08:45:30;1.58;;;1.40;;
80778;SDS011;70170;47.856;10.956;2024-02-16T08:47:55;2.38;;;1.20;;
80778;SDS011;70170;47.856;10.956;2024-02-16T08:50:22;2.75;;;1.02;;
80778;SDS011;70170;47.856;10.956;2024-02-16T08:52:47;4.10;;;1.17;;
80778;SDS011;70170;47.856;10.956;2024-02-16T08:55:13;1.10;;;1.00;;
80778;SDS011;70170;47.856;10.956;2024-02-16T08:57:38;1.00;;;1.00;;
80778;SDS011;70170;47.856;10.956;2024-02-16T09:00:04;3.25;;;1.40;;
80778;SDS011;70170;47.856;10.956;2024-02-16T09:02:30;4.85;;;1.00;;
80778;SDS011;70170;47.856;10.956;2024-02-16T09:04:55;3.13;;;1.17;;
80778;SDS011;70170;47.856;10.956;2024-02-16T09:07:21;1.45;;;1.35;;
80778;SDS011;70170;47.856;10.956;2024-02-16T09:09:47;2.67;;;1.33;;
80778;SDS011;70170;47.856;10.956;2024-02-16T09:12:13;2.22;;;1.50;;
80778;SDS011;70170;47.856;10.956;2024-02-16T09:14:38;1.40;;;1.30;;
80778;SDS011;70170;47.856;10.956;2024-02-16T09:17:03;1.58;;;1.25;;
80778;SDS011;70170;47.856;10.956;2024-02-16T09:19:31;1.35;;;1.17;;
80778;SDS011;70170;47.856;10.956;2024-02-16T09:21:57;1.95;;;1.20;;
80778;SDS011;70170;47.856;10.956;2024-02-16T09:24:23;1.05;;;1.00;;
80778;SDS011;70170;47.856;10.956;2024-02-16T09:26:53;1.67;;;1.27;;
80778;SDS011;70170;47.856;10.956;2024-02-16T09:29:19;1.15;;;1.02;;
80778;SDS011;70170;47.856;10.956;2024-02-16T09:31:44;1.20;;;1.10;;
80778;SDS011;70170;47.856;10.956;2024-02-16T09:34:10;1.20;;;1.10;;
80778;SDS011;70170;47.856;10.956;2024-02-16T09:36:35;1.73;;;1.10;;
80778;SDS011;70170;47.856;10.956;2024-02-16T09:39:02;2.72;;;1.10;;
80778;SDS011;70170;47.856;10.956;2024-02-16T09:41:28;1.15;;;1.10;;
80778;SDS011;70170;47.856;10.956;2024-02-16T09:43:53;1.10;;;1.00;;
80778;SDS011;70170;47.856;10.956;2024-02-16T09:46:19;1.05;;;1.00;;
80778;SDS011;70170;47.856;10.956;2024-02-16T09:48:46;2.42;;;1.40;;
80778;SDS011;70170;47.856;10.956;2024-02-16T09:51:16;4.97;;;1.10;;
80778;SDS011;70170;47.856;10.956;2024-02-16T09:53:42;2.47;;;1.70;;
80778;SDS011;70170;47.856;10.956;2024-02-16T09:56:07;2.67;;;1.00;;
80778;SDS011;70170;47.856;10.956;2024-02-16T09:58:34;1.98;;;1.10;;
80778;SDS011;70170;47.856;10.956;2024-02-16T10:01:00;3.47;;;1.20;;
80778;SDS011;70170;47.856;10.956;2024-02-16T10:03:26;1.27;;;1.00;;
80778;SDS011;70170;47.856;10.956;2024-02-16T10:06:03;1.88;;;1.20;;
80778;SDS011;70170;47.856;10.956;2024-02-16T10:08:33;1.77;;;1.20;;
80778;SDS011;70170;47.856;10.956;2024-02-16T10:11:03;1.77;;;1.00;;
80778;SDS011;70170;47.856;10.956;2024-02-16T10:13:29;1.10;;;1.00;;
80778;SDS011;70170;47.856;10.956;2024-02-16T10:16:04;1.15;;;0.75;;
80778;SDS011;70170;47.856;10.956;2024-02-16T10:18:31;1.35;;;0.88;;
80778;SDS011;70170;47.856;10.956;2024-02-16T10:20:56;6.50;;;1.00;;
80778;SDS011;70170;47.856;10.956;2024-02-16T10:23:22;1.63;;;1.10;;
80778;SDS011;70170;47.856;10.956;2024-02-16T10:25:47;1.10;;;1.00;;
80778;SDS011;70170;47.856;10.956;2024-02-16T10:28:12;1.83;;;1.00;;
80778;SDS011;70170;47.856;10.956;2024-02-16T10:30:39;2.45;;;0.90;;
80778;SDS011;70170;47.856;10.956;2024-02-16T10:33:07;1.15;;;1.00;;
80778;SDS011;70170;47.856;10.956;2024-02-16T10:35:36;8.13;;;1.10;;
80778;SDS011;70170;47.856;10.956;2024-02-16T10:38:03;2.10;;;0.93;;
80778;SDS011;70170;47.856;10.956;2024-02-16T10:40:41;2.00;;;0.95;;
80778;SDS011;70170;47.856;10.956;2024-02-16T10:43:07;1.85;;;1.20;;
80778;SDS011;70170;47.856;10.956;2024-02-16T10:45:37;1.13;;;0.98;;
80778;SDS011;70170;47.856;10.956;2024-02-16T10:48:04;0.90;;;0.90;;
80778;SDS011;70170;47.856;10.956;2024-02-16T10:50:32;1.67;;;1.10;;
80778;SDS011;70170;47.856;10.956;2024-02-16T10:53:04;2.67;;;1.50;;
80778;SDS011;70170;47.856;10.956;2024-02-16T10:55:35;3.08;;;1.10;;
80778;SDS011;70170;47.856;10.956;2024-02-16T10:58:01;2.00;;;1.00;;
80778;SDS011;70170;47.856;10.956;2024-02-16T11:00:26;1.25;;;0.75;;
80778;SDS011;70170;47.856;10.956;2024-02-16T11:02:52;0.90;;;0.90;;
80778;SDS011;70170;47.856;10.956;2024-02-16T11:05:18;2.58;;;1.13;;
80778;SDS011;70170;47.856;10.956;2024-02-16T11:07:44;1.85;;;0.95;;
80778;SDS011;70170;47.856;10.956;2024-02-16T11:10:12;3.30;;;0.90;;
80778;SDS011;70170;47.856;10.956;2024-02-16T11:12:37;2.05;;;1.33;;
80778;SDS011;70170;47.856;10.956;2024-02-16T11:15:04;0.95;;;0.95;;
80778;SDS011;70170;47.856;10.956;2024-02-16T11:17:33;1.77;;;1.08;;
80778;SDS011;70170;47.856;10.956;2024-02-16T11:20:00;5.53;;;1.40;;
80778;SDS011;70170;47.856;10.956;2024-02-16T11:22:29;1.20;;;0.90;;
80778;SDS011;70170;47.856;10.956;2024-02-16T11:24:54;0.80;;;0.80;;
80778;SDS011;70170;47.856;10.956;2024-02-16T11:27:19;2.88;;;1.15;;
80778;SDS011;70170;47.856;10.956;2024-02-16T11:29:46;1.70;;;1.00;;
80778;SDS011;70170;47.856;10.956;2024-02-16T11:32:11;2.95;;;1.20;;
80778;SDS011;70170;47.856;10.956;2024-02-16T11:34:37;0.88;;;0.88;;
80778;SDS011;70170;47.856;10.956;2024-02-16T11:37:05;3.53;;;1.10;;
80778;SDS011;70170;47.856;10.956;2024-02-16T11:39:31;0.93;;;0.88;;
80778;SDS011;70170;47.856;10.956;2024-02-16T11:42:05;1.55;;;1.10;;
80778;SDS011;70170;47.856;10.956;2024-02-16T11:44:38;2.25;;;1.20;;
80778;SDS011;70170;47.856;10.956;2024-02-16T11:47:05;3.72;;;1.10;;
80778;SDS011;70170;47.856;10.956;2024-02-16T11:49:32;1.13;;;1.10;;
80778;SDS011;70170;47.856;10.956;2024-02-16T11:52:00;1.85;;;1.00;;
80778;SDS011;70170;47.856;10.956;2024-02-16T11:54:25;2.00;;;0.90;;
80778;SDS011;70170;47.856;10.956;2024-02-16T11:56:51;1.02;;;0.70;;
80778;SDS011;70170;47.856;10.956;2024-02-16T11:59:17;2.08;;;1.05;;
80778;SDS011;70170;47.856;10.956;2024-02-16T12:01:53;1.75;;;1.30;;
80778;SDS011;70170;47.856;10.956;2024-02-16T12:04:24;3.22;;;1.38;;
80778;SDS011;70170;47.856;10.956;2024-02-16T12:06:59;1.27;;;1.05;;
80778;SDS011;70170;47.856;10.956;2024-02-16T12:09:28;2.17;;;1.10;;
80778;SDS011;70170;47.856;10.956;2024-02-16T12:11:56;1.98;;;1.10;;
80778;SDS011;70170;47.856;10.956;2024-02-16T12:14:22;0.93;;;0.93;;
80778;SDS011;70170;47.856;10.956;2024-02-16T12:16:48;7.20;;;1.25;;
80778;SDS011;70170;47.856;10.956;2024-02-16T12:19:15;0.90;;;0.90;;
80778;SDS011;70170;47.856;10.956;2024-02-16T12:21:41;2.08;;;1.17;;
80778;SDS011;70170;47.856;10.956;2024-02-16T12:24:07;0.93;;;0.93;;
80778;SDS011;70170;47.856;10.956;2024-02-16T12:26:33;3.15;;;1.27;;
80778;SDS011;70170;47.856;10.956;2024-02-16T12:28:58;1.48;;;1.38;;
80778;SDS011;70170;47.856;10.956;2024-02-16T12:31:24;1.92;;;1.10;;
80778;SDS011;70170;47.856;10.956;2024-02-16T12:33:51;1.98;;;1.27;;
80778;SDS011;70170;47.856;10.956;2024-02-16T12:36:19;2.22;;;0.80;;
80778;SDS011;70170;47.856;10.956;2024-02-16T12:38:45;5.80;;;1.30;;
80778;SDS011;70170;47.856;10.956;2024-02-16T12:41:10;4.95;;;1.02;;
80778;SDS011;70170;47.856;10.956;2024-02-16T12:43:36;2.45;;;1.27;;
80778;SDS011;70170;47.856;10.956;2024-02-16T12:46:01;5.35;;;1.33;;
80778;SDS011;70170;47.856;10.956;2024-02-16T12:48:29;2.33;;;1.17;;
80778;SDS011;70170;47.856;10.956;2024-02-16T12:50:54;1.30;;;1.20;;
80778;SDS011;70170;47.856;10.956;2024-02-16T12:53:20;4.28;;;1.42;;
80778;SDS011;70170;47.856;10.956;2024-02-16T12:55:46;2.33;;;1.30;;
80778;SDS011;70170;47.856;10.956;2024-02-16T12:58:12;2.65;;;1.38;;
80778;SDS011;70170;47.856;10.956;2024-02-16T13:00:38;2.03;;;1.40;;
80778;SDS011;70170;47.856;10.956;2024-02-16T13:03:03;1.70;;;1.20;;
80778;SDS011;70170;47.856;10.956;2024-02-16T13:05:29;2.58;;;1.30;;
80778;SDS011;70170;47.856;10.956;2024-02-16T13:07:56;2.28;;;1.17;;
80778;SDS011;70170;47.856;10.956;2024-02-16T13:10:22;2.00;;;1.33;;
80778;SDS011;70170;47.856;10.956;2024-02-16T13:12:47;1.85;;;1.20;;
80778;SDS011;70170;47.856;10.956;2024-02-16T13:15:13;3.20;;;1.10;;
80778;SDS011;70170;47.856;10.956;2024-02-16T13:17:38;2.50;;;1.50;;
80778;SDS011;70170;47.856;10.956;2024-02-16T13:20:03;4.68;;;1.45;;
80778;SDS011;70170;47.856;10.956;2024-02-16T13:22:34;3.00;;;1.55;;
80778;SDS011;70170;47.856;10.956;2024-02-16T13:25:03;4.65;;;1.20;;
80778;SDS011;70170;47.856;10.956;2024-02-16T13:27:29;2.60;;;1.38;;
80778;SDS011;70170;47.856;10.956;2024-02-16T13:29:54;4.15;;;1.80;;
80778;SDS011;70170;47.856;10.956;2024-02-16T13:32:20;2.92;;;1.60;;
80778;SDS011;70170;47.856;10.956;2024-02-16T13:34:46;4.00;;;1.40;;
80778;SDS011;70170;47.856;10.956;2024-02-16T13:37:11;3.70;;;2.00;;
80778;SDS011;70170;47.856;10.956;2024-02-16T13:39:37;1.75;;;1.27;;
80778;SDS011;70170;47.856;10.956;2024-02-16T13:42:03;1.50;;;1.27;;
80778;SDS011;70170;47.856;10.956;2024-02-16T13:44:28;10.60;;;1.27;;
80778;SDS011;70170;47.856;10.956;2024-02-16T13:46:54;1.15;;;0.90;;
80778;SDS011;70170;47.856;10.956;2024-02-16T13:49:19;4.32;;;1.13;;
80778;SDS011;70170;47.856;10.956;2024-02-16T13:51:45;1.10;;;1.10;;
80778;SDS011;70170;47.856;10.956;2024-02-16T13:54:10;1.05;;;1.05;;
80778;SDS011;70170;47.856;10.956;2024-02-16T13:56:39;2.97;;;1.35;;
80778;SDS011;70170;47.856;10.956;2024-02-16T13:59:05;1.20;;;1.10;;
80778;SDS011;70170;47.856;10.956;2024-02-16T14:01:33;4.35;;;1.27;;
80778;SDS011;70170;47.856;10.956;2024-02-16T14:03:59;2.10;;;1.38;;
80778;SDS011;70170;47.856;10.956;2024-02-16T14:06:25;1.80;;;1.10;;
80778;SDS011;70170;47.856;10.956;2024-02-16T14:08:50;5.80;;;1.20;;
80778;SDS011;70170;47.856;10.956;2024-02-16T14:11:20;3.42;;;1.15;;
80778;SDS011;70170;47.856;10.956;2024-02-16T14:13:46;5.30;;;1.75;;
80778;SDS011;70170;47.856;10.956;2024-02-16T14:16:12;4.15;;;1.55;;
80778;SDS011;70170;47.856;10.956;2024-02-16T14:18:37;2.42;;;1.23;;
80778;SDS011;70170;47.856;10.956;2024-02-16T14:21:03;2.47;;;1.38;;
80778;SDS011;70170;47.856;10.956;2024-02-16T14:23:29;7.18;;;1.63;;
80778;SDS011;70170;47.856;10.956;2024-02-16T14:25:57;1.92;;;1.10;;